createdAt,value
2023-03-08T00:01:02.459Z,8.80
2023-03-08T00:03:29.261Z,11.20
2023-03-08T00:05:55.834Z,11.30
2023-03-08T00:08:22.431Z,8.88
2023-03-08T00:10:49.381Z,8.00
2023-03-08T00:13:15.984Z,7.95
2023-03-08T00:15:42.572Z,10.43
2023-03-08T00:18:09.467Z,10.77
2023-03-08T00:20:36.167Z,6.53
2023-03-08T00:23:02.875Z,6.60
2023-03-08T00:25:30.034Z,10.30
2023-03-08T00:27:56.634Z,8.25
2023-03-08T00:30:23.274Z,11.13
2023-03-08T00:32:49.968Z,10.98
2023-03-08T00:35:16.676Z,10.02
2023-03-08T00:37:43.269Z,12.35
2023-03-08T00:40:10.473Z,12.75
2023-03-08T00:42:37.069Z,8.05
2023-03-08T00:45:03.850Z,9.93
2023-03-08T00:47:30.732Z,7.72
2023-03-08T00:49:58.001Z,8.05
2023-03-08T00:52:24.597Z,7.95
2023-03-08T00:54:54.026Z,10.52
2023-03-08T00:57:20.661Z,9.18
2023-03-08T00:59:47.219Z,6.20
2023-03-08T01:02:14.100Z,8.82
2023-03-08T01:04:40.697Z,7.38
2023-03-08T01:07:07.326Z,8.13
2023-03-08T01:09:33.984Z,10.52
2023-03-08T01:12:00.592Z,8.60
2023-03-08T01:14:27.211Z,9.38
2023-03-08T01:16:53.876Z,11.10
2023-03-08T01:19:20.715Z,13.10
2023-03-08T01:21:47.265Z,11.48
2023-03-08T01:24:14.030Z,8.30
2023-03-08T01:26:40.615Z,9.88
2023-03-08T01:29:07.158Z,10.32
2023-03-08T01:31:33.959Z,7.97
2023-03-08T01:34:00.745Z,8.20
2023-03-08T01:36:28.718Z,6.50
2023-03-08T01:38:55.575Z,9.00
2023-03-08T01:41:28.575Z,10.57
2023-03-08T01:43:55.995Z,8.25
2023-03-08T01:46:29.871Z,8.45
2023-03-08T01:49:17.912Z,9.32
2023-03-08T01:51:49.089Z,13.10
2023-03-08T01:54:28.451Z,7.07
2023-03-08T01:57:01.043Z,10.27
2023-03-08T01:59:29.951Z,10.98
2023-03-08T02:01:56.596Z,8.70
2023-03-08T02:04:23.208Z,12.02
2023-03-08T02:06:50.022Z,11.15
2023-03-08T02:09:16.700Z,8.43
2023-03-08T02:11:43.722Z,8.93
2023-03-08T02:14:10.643Z,10.75
2023-03-08T02:16:38.302Z,10.13
2023-03-08T02:19:11.264Z,7.38
2023-03-08T02:21:37.978Z,7.82
2023-03-08T02:24:21.140Z,11.15
2023-03-08T02:26:48.555Z,7.68
2023-03-08T02:29:15.349Z,7.05
2023-03-08T02:31:42.054Z,10.70
2023-03-08T02:34:08.857Z,12.38
2023-03-08T02:36:35.734Z,9.35
2023-03-08T02:39:02.372Z,9.63
2023-03-08T02:41:29.074Z,9.75
2023-03-08T02:43:55.675Z,11.40
2023-03-08T02:46:22.570Z,9.85
2023-03-08T02:48:50.787Z,11.05
2023-03-08T02:51:17.365Z,9.35
2023-03-08T02:53:43.995Z,10.02
2023-03-08T02:56:10.636Z,7.88
2023-03-08T02:58:37.220Z,9.45
2023-03-08T03:01:03.983Z,10.70
2023-03-08T03:03:31.443Z,7.65
2023-03-08T03:05:58.192Z,9.40
2023-03-08T03:08:24.815Z,10.13
2023-03-08T03:10:51.546Z,7.70
2023-03-08T03:13:18.176Z,10.05
2023-03-08T03:15:44.867Z,9.18
2023-03-08T03:18:11.492Z,5.32
2023-03-08T03:20:38.083Z,7.78
2023-03-08T03:23:04.744Z,9.35
2023-03-08T03:25:31.342Z,8.00
2023-03-08T03:27:57.943Z,9.45
2023-03-08T03:30:24.601Z,13.95
2023-03-08T03:32:51.325Z,9.55
2023-03-08T03:35:18.040Z,10.00
2023-03-08T03:37:44.732Z,4.90
2023-03-08T03:40:12.396Z,10.35
2023-03-08T03:42:38.951Z,9.25
2023-03-08T03:45:06.110Z,8.70
2023-03-08T03:47:32.661Z,9.60
2023-03-08T03:49:59.288Z,7.22
2023-03-08T03:52:25.924Z,9.25
2023-03-08T03:54:52.569Z,10.73
2023-03-08T03:57:20.449Z,9.23
2023-03-08T03:59:47.142Z,8.73
2023-03-08T04:02:13.731Z,6.53
2023-03-08T04:04:40.348Z,8.63
2023-03-08T04:07:07.032Z,8.75
2023-03-08T04:09:33.608Z,9.70
2023-03-08T04:12:02.642Z,11.90
2023-03-08T04:14:29.235Z,6.63
2023-03-08T04:16:55.899Z,12.48
2023-03-08T04:19:22.648Z,9.63
2023-03-08T04:21:49.401Z,11.10
2023-03-08T04:24:16.018Z,8.75
2023-03-08T04:26:42.607Z,9.98
2023-03-08T04:29:09.234Z,6.90
2023-03-08T04:31:36.932Z,8.82
2023-03-08T04:34:04.219Z,6.07
2023-03-08T04:36:30.965Z,8.98
2023-03-08T04:38:58.069Z,10.18
2023-03-08T04:41:25.199Z,8.35
2023-03-08T04:43:54.591Z,8.77
2023-03-08T04:46:26.691Z,10.63
2023-03-08T04:48:55.646Z,8.43
2023-03-08T04:51:24.681Z,8.18
2023-03-08T04:53:51.425Z,7.80
2023-03-08T04:56:18.740Z,7.88
2023-03-08T04:58:45.484Z,11.85
2023-03-08T06:03:42.483Z,17.58
2023-03-08T06:06:09.204Z,18.30
2023-03-08T06:08:36.066Z,16.52
2023-03-08T06:11:03.000Z,18.52
2023-03-08T06:13:30.060Z,16.65
2023-03-08T06:15:58.190Z,17.00
2023-03-08T06:18:25.385Z,17.02
2023-03-08T06:21:16.832Z,16.48
2023-03-08T06:23:45.528Z,16.75
2023-03-08T06:26:12.771Z,15.90
2023-03-08T06:28:42.751Z,16.40
2023-03-08T06:31:13.366Z,15.23
2023-03-08T06:33:40.386Z,16.52
2023-03-08T06:36:13.001Z,17.35
2023-03-08T06:38:41.489Z,15.95
2023-03-08T06:41:10.293Z,19.75
2023-03-08T06:43:37.103Z,15.68
2023-03-08T06:46:09.082Z,16.67
2023-03-08T06:48:36.908Z,16.88
2023-03-08T06:51:05.009Z,17.73
2023-03-08T06:53:32.124Z,16.13
2023-03-08T06:55:59.116Z,18.15
2023-03-08T06:58:25.694Z,18.05
2023-03-08T07:00:54.365Z,18.10
2023-03-08T07:03:21.054Z,18.98
2023-03-08T07:05:47.656Z,18.95
2023-03-08T07:08:14.406Z,19.17
2023-03-08T07:10:41.092Z,18.77
2023-03-08T07:13:07.702Z,19.77
2023-03-08T07:15:34.435Z,18.50
2023-03-08T07:18:01.122Z,19.10
2023-03-08T07:20:27.968Z,18.55
2023-03-08T07:22:54.855Z,20.60
2023-03-08T07:25:21.903Z,17.63
2023-03-08T07:27:48.730Z,17.60
2023-03-08T07:30:16.278Z,17.23
2023-03-08T07:32:43.192Z,20.23
2023-03-08T07:35:11.636Z,17.85
2023-03-08T07:37:38.563Z,19.58
2023-03-08T07:40:06.940Z,18.13
2023-03-08T07:42:33.886Z,17.42
2023-03-08T07:45:03.717Z,17.67
2023-03-08T07:47:31.649Z,17.05
2023-03-08T07:49:58.555Z,16.40
2023-03-08T07:52:29.462Z,18.23
2023-03-08T07:54:56.770Z,17.50
2023-03-08T07:57:23.885Z,17.60
2023-03-08T07:59:53.417Z,17.73
2023-03-08T08:02:20.748Z,16.63
2023-03-08T08:04:47.451Z,16.48
2023-03-08T08:07:16.494Z,17.00
2023-03-08T08:09:43.262Z,17.20
2023-03-08T08:12:10.075Z,16.98
2023-03-08T08:14:36.857Z,17.30
2023-03-08T08:17:03.826Z,18.25
2023-03-08T08:19:32.025Z,17.27
2023-03-08T08:21:59.161Z,24.88
2023-03-08T08:24:26.293Z,16.98
2023-03-08T08:26:53.302Z,20.92
2023-03-08T08:29:20.173Z,16.88
2023-03-08T08:31:46.998Z,17.45
2023-03-08T08:34:13.949Z,16.48
2023-03-08T08:36:40.730Z,16.70
2023-03-08T08:39:07.396Z,17.25
2023-03-08T08:41:34.072Z,18.48
2023-03-08T08:44:00.971Z,17.15
2023-03-08T08:46:28.630Z,16.02
2023-03-08T08:48:57.636Z,15.93
2023-03-08T08:51:24.611Z,17.23
2023-03-08T08:53:51.354Z,15.85
2023-03-08T08:56:27.265Z,16.15
2023-03-08T08:59:00.608Z,16.80
2023-03-08T09:01:31.402Z,15.75
2023-03-08T09:03:59.408Z,17.83
2023-03-08T09:06:27.933Z,14.73
2023-03-08T09:08:57.484Z,16.00
2023-03-08T09:11:25.462Z,19.63
2023-03-08T09:13:53.318Z,19.67
2023-03-08T09:16:28.632Z,15.32
2023-03-08T09:18:56.974Z,16.08
2023-03-08T09:21:24.881Z,14.95
2023-03-08T09:23:52.136Z,15.95
2023-03-08T09:26:19.190Z,18.77
2023-03-08T09:28:46.117Z,16.25
2023-03-08T09:31:18.753Z,17.58
2023-03-08T09:33:48.698Z,15.02
2023-03-08T09:36:15.755Z,14.30
2023-03-08T09:38:42.913Z,16.02
2023-03-08T09:41:27.919Z,13.55
2023-03-08T09:43:57.486Z,17.23
2023-03-08T09:46:31.258Z,15.57
2023-03-08T09:49:01.198Z,15.35
2023-03-08T09:51:37.764Z,16.23
2023-03-08T09:54:11.299Z,13.77
2023-03-08T09:56:46.107Z,13.60
2023-03-08T09:59:19.720Z,12.90
2023-03-08T10:02:17.331Z,15.23
2023-03-08T10:05:12.188Z,12.10
2023-03-08T10:08:01.495Z,11.18
2023-03-08T10:10:28.039Z,12.70
2023-03-08T10:13:19.078Z,13.75
2023-03-08T10:15:50.592Z,16.23
2023-03-08T10:18:21.899Z,13.55
2023-03-08T10:20:49.059Z,13.43
2023-03-08T10:23:19.442Z,12.80
2023-03-08T10:25:47.987Z,10.70
2023-03-08T10:28:16.128Z,13.07
2023-03-08T10:31:04.553Z,10.85
2023-03-08T10:33:36.261Z,8.18
2023-03-08T10:36:06.501Z,5.45
2023-03-08T10:38:35.405Z,7.53
2023-03-08T10:41:16.574Z,7.60
2023-03-08T10:43:49.412Z,8.77
2023-03-08T10:46:22.853Z,11.30
2023-03-08T10:48:49.848Z,10.02
2023-03-08T10:51:27.760Z,9.52
2023-03-08T10:54:03.464Z,8.32
2023-03-08T10:56:38.574Z,9.18
2023-03-08T10:59:15.828Z,9.82
2023-03-08T11:01:54.708Z,11.38
2023-03-08T11:04:23.718Z,10.68
2023-03-08T11:06:50.728Z,12.27
2023-03-08T11:09:22.354Z,11.23
2023-03-08T11:11:49.052Z,12.32
2023-03-08T11:14:16.265Z,10.13
2023-03-08T11:17:05.041Z,9.48
2023-03-08T11:19:35.190Z,9.43
2023-03-08T11:22:07.939Z,10.52
2023-03-08T11:24:53.041Z,11.00
2023-03-08T11:27:44.242Z,8.50
2023-03-08T11:30:28.030Z,8.82
2023-03-08T11:33:34.304Z,7.32
2023-03-08T11:36:12.665Z,7.47
2023-03-08T11:38:39.749Z,11.45
2023-03-08T11:41:14.738Z,5.10
2023-03-08T11:44:00.172Z,11.65
2023-03-08T11:46:41.966Z,11.60
2023-03-08T11:49:33.980Z,8.57
2023-03-08T11:52:00.586Z,9.88
2023-03-08T11:54:52.623Z,12.30
2023-03-08T11:57:20.285Z,9.18
2023-03-08T11:59:50.074Z,9.50
2023-03-08T12:02:30.545Z,8.13
2023-03-08T12:05:12.151Z,9.77
2023-03-08T12:07:45.274Z,9.57
2023-03-08T12:10:29.668Z,9.65
2023-03-08T12:13:23.345Z,12.38
2023-03-08T12:16:01.788Z,10.40
2023-03-08T12:18:34.586Z,10.15
2023-03-08T12:21:34.360Z,7.45
2023-03-08T12:24:26.813Z,10.67
2023-03-08T12:27:02.194Z,11.48
2023-03-08T12:29:37.623Z,9.82
2023-03-08T12:32:05.888Z,9.18
2023-03-08T12:34:35.788Z,10.73
2023-03-08T12:37:02.693Z,9.20
2023-03-08T12:39:36.890Z,9.48
2023-03-08T12:42:09.990Z,11.13
2023-03-08T12:44:37.806Z,11.93
2023-03-08T12:47:13.761Z,12.43
2023-03-08T12:49:45.023Z,10.18
2023-03-08T12:52:17.688Z,10.02
2023-03-08T12:54:56.378Z,10.23
2023-03-08T12:57:28.574Z,4.20
2023-03-08T12:59:58.761Z,9.82
2023-03-08T13:02:28.507Z,5.90
2023-03-08T13:05:28.536Z,12.67
2023-03-08T13:08:07.316Z,10.73
2023-03-08T13:10:38.475Z,9.38
2023-03-08T13:13:20.464Z,11.07
2023-03-08T13:16:20.556Z,9.75
2023-03-08T13:18:49.877Z,13.55
2023-03-08T13:21:35.406Z,13.70
2023-03-08T13:24:22.645Z,15.13
2023-03-08T13:27:09.085Z,13.82
2023-03-08T13:29:36.403Z,12.27
2023-03-08T13:32:18.281Z,13.02
2023-03-08T13:34:47.102Z,11.73
2023-03-08T13:37:25.152Z,14.02
2023-03-08T13:39:57.365Z,7.10
2023-03-08T13:42:25.879Z,8.45
2023-03-08T13:44:54.021Z,9.82
2023-03-08T13:47:30.454Z,7.47
2023-03-08T13:49:58.749Z,9.15
2023-03-08T13:52:31.378Z,10.90
2023-03-08T13:55:05.438Z,9.32
2023-03-08T13:57:36.554Z,11.40
2023-03-08T14:00:28.456Z,12.23
2023-03-08T14:02:57.644Z,9.90
2023-03-08T14:05:28.576Z,9.70
2023-03-08T14:08:04.163Z,11.85
2023-03-08T14:10:39.083Z,9.77
2023-03-08T14:13:14.746Z,11.10
2023-03-08T14:15:58.845Z,13.05
2023-03-08T14:18:34.671Z,10.20
2023-03-08T14:21:05.370Z,6.90
2023-03-08T14:23:38.215Z,8.57
2023-03-08T14:26:07.742Z,7.20
2023-03-08T14:28:41.391Z,8.05
2023-03-08T14:31:28.695Z,9.57
2023-03-08T14:34:01.773Z,7.22
2023-03-08T14:36:30.534Z,9.85
2023-03-08T14:39:01.657Z,11.82
2023-03-08T14:41:36.585Z,12.35
2023-03-08T14:44:05.046Z,11.30
2023-03-08T14:46:32.042Z,11.75
2023-03-08T14:49:22.359Z,8.20
2023-03-08T14:51:49.794Z,10.93
2023-03-08T14:54:38.594Z,11.45
2023-03-08T14:57:17.367Z,6.95
2023-03-08T14:59:44.505Z,10.05
2023-03-08T15:02:13.334Z,12.60
2023-03-08T15:04:40.946Z,11.02
2023-03-08T15:07:14.864Z,13.68
2023-03-08T15:09:41.577Z,11.20
2023-03-08T15:12:09.474Z,11.73
2023-03-08T15:14:36.609Z,13.30
2023-03-08T15:17:03.686Z,16.70
2023-03-08T15:19:30.294Z,30.08
2023-03-08T15:21:57.181Z,35.53
2023-03-08T15:24:23.920Z,77.60
2023-03-08T15:26:52.727Z,16.25
2023-03-08T15:29:28.936Z,43.78
2023-03-08T15:31:56.149Z,27.08
2023-03-08T15:34:23.422Z,15.88
2023-03-08T15:36:51.469Z,16.15
2023-03-08T15:39:19.453Z,15.23
2023-03-08T15:41:47.118Z,14.43
2023-03-08T15:44:14.045Z,26.25
2023-03-08T15:46:40.801Z,16.50
2023-03-08T15:49:07.528Z,18.27
2023-03-08T15:51:36.419Z,27.92
2023-03-08T15:54:05.611Z,18.05
2023-03-08T15:56:32.495Z,15.25
2023-03-08T15:58:59.380Z,16.45
2023-03-08T16:01:27.302Z,15.45
2023-03-08T16:03:55.730Z,15.00
2023-03-08T16:06:23.334Z,14.65
2023-03-08T16:08:49.900Z,15.82
2023-03-08T16:11:20.517Z,14.65
2023-03-08T16:13:49.280Z,19.40
2023-03-08T16:16:16.218Z,15.13
2023-03-08T16:18:44.718Z,14.32
2023-03-08T16:21:11.859Z,12.10
2023-03-08T16:23:41.695Z,17.02
2023-03-08T16:26:16.945Z,16.00
2023-03-08T16:28:47.042Z,14.48
2023-03-08T16:31:15.199Z,18.98
2023-03-08T16:33:41.987Z,16.80
2023-03-08T16:36:08.847Z,9.30
2023-03-08T16:38:35.952Z,14.35
2023-03-08T16:41:12.547Z,13.35
2023-03-08T16:43:47.406Z,14.45
2023-03-08T16:46:17.171Z,13.88
2023-03-08T16:48:44.054Z,18.15
2023-03-08T16:51:14.415Z,14.75
2023-03-08T16:53:41.170Z,15.23
2023-03-08T16:56:07.879Z,16.98
2023-03-08T16:58:34.648Z,16.52
2023-03-08T17:01:01.548Z,16.25
2023-03-08T17:03:28.454Z,17.80
2023-03-08T17:05:55.072Z,18.23
2023-03-08T17:08:21.971Z,16.38
2023-03-08T17:10:48.724Z,25.58
2023-03-08T17:13:15.316Z,21.92
2023-03-08T17:15:44.041Z,17.45
2023-03-08T17:18:11.122Z,16.60
2023-03-08T17:20:41.855Z,19.02
2023-03-08T17:23:11.138Z,15.50
2023-03-08T17:25:41.134Z,15.57
2023-03-08T17:28:08.820Z,16.67
2023-03-08T17:30:36.628Z,15.63
2023-03-08T17:33:03.347Z,16.95
2023-03-08T17:35:30.432Z,14.23
2023-03-08T17:37:57.437Z,15.50
2023-03-08T17:40:24.455Z,16.85
2023-03-08T17:42:51.233Z,17.73
2023-03-08T17:45:18.779Z,34.08
2023-03-08T17:47:45.712Z,43.45
2023-03-08T17:50:15.351Z,44.03
2023-03-08T17:52:42.472Z,22.88
2023-03-08T17:55:12.038Z,20.40
2023-03-08T17:57:38.815Z,17.48
2023-03-08T18:00:06.491Z,23.80
2023-03-08T18:02:33.487Z,21.10
2023-03-08T18:05:00.189Z,25.45
2023-03-08T18:07:29.200Z,18.55
2023-03-08T18:09:56.102Z,19.48
2023-03-08T18:12:23.102Z,20.48
2023-03-08T18:14:52.698Z,18.45
2023-03-08T18:17:21.677Z,20.85
2023-03-08T18:19:48.683Z,24.17
2023-03-08T18:22:16.317Z,26.83
2023-03-08T18:24:43.060Z,22.88
2023-03-08T18:27:09.770Z,24.23
2023-03-08T18:29:36.981Z,28.02
2023-03-08T18:32:04.928Z,28.83
2023-03-08T18:34:31.586Z,25.73
2023-03-08T18:36:58.935Z,24.23
2023-03-08T18:39:25.964Z,24.02
2023-03-08T18:41:56.653Z,29.27
2023-03-08T18:46:51.017Z,23.38
2023-03-08T18:49:18.221Z,20.20
2023-03-08T18:51:45.227Z,18.10
2023-03-08T18:54:17.446Z,18.35
2023-03-08T18:56:44.615Z,17.75
2023-03-08T18:59:13.577Z,20.30
2023-03-08T19:01:40.856Z,17.48
2023-03-08T19:04:08.105Z,21.00
2023-03-08T19:06:36.375Z,19.90
2023-03-08T19:09:15.101Z,18.80
2023-03-08T19:11:42.321Z,20.30
2023-03-08T19:14:11.453Z,20.33
2023-03-08T19:16:38.135Z,19.08
2023-03-08T19:19:13.364Z,20.55
2023-03-08T19:21:45.060Z,21.52
2023-03-08T19:24:13.359Z,21.80
2023-03-08T19:26:43.072Z,21.90
2023-03-08T19:29:22.940Z,23.53
2023-03-08T19:31:53.917Z,22.42
2023-03-08T19:34:26.586Z,23.73
2023-03-08T19:36:53.498Z,25.83
2023-03-08T19:39:23.540Z,23.67
2023-03-08T19:41:51.832Z,24.77
2023-03-08T19:44:19.126Z,23.25
2023-03-08T19:46:46.742Z,23.27
2023-03-08T19:49:16.433Z,22.17
2023-03-08T19:51:43.391Z,21.55
2023-03-08T19:54:10.324Z,22.70
2023-03-08T19:56:36.949Z,20.67
2023-03-08T19:59:04.139Z,20.90
2023-03-08T20:01:31.248Z,20.35
2023-03-08T20:03:58.094Z,19.65
2023-03-08T20:06:34.435Z,20.00
2023-03-08T20:09:02.639Z,20.15
2023-03-08T20:11:29.627Z,20.35
2023-03-08T20:13:56.558Z,20.63
2023-03-08T20:16:24.482Z,20.13
2023-03-08T20:18:51.917Z,20.40
2023-03-08T20:21:20.042Z,21.00
2023-03-08T20:23:49.573Z,21.27
2023-03-08T20:26:16.165Z,19.75
2023-03-08T20:28:43.084Z,21.27
2023-03-08T20:31:13.086Z,20.65
2023-03-08T20:33:40.080Z,21.60
2023-03-08T20:36:07.439Z,20.60
2023-03-08T20:38:34.087Z,19.50
2023-03-08T20:41:21.759Z,27.48
2023-03-08T20:43:50.682Z,21.95
2023-03-08T20:46:19.559Z,20.65
2023-03-08T20:48:46.770Z,20.30
2023-03-08T20:51:16.117Z,21.15
2023-03-08T20:53:43.946Z,22.83
2023-03-08T20:56:14.928Z,20.13
2023-03-08T20:58:42.084Z,20.77
2023-03-08T21:01:12.136Z,19.70
2023-03-08T21:03:39.339Z,19.05
2023-03-08T21:06:14.036Z,19.02
2023-03-08T21:08:41.301Z,21.00
2023-03-08T21:11:08.003Z,20.73
2023-03-08T21:13:34.667Z,20.88
2023-03-08T21:16:06.424Z,20.02
2023-03-08T21:18:33.096Z,21.08
2023-03-08T21:20:59.855Z,20.23
2023-03-08T21:23:26.829Z,19.90
2023-03-08T21:25:54.320Z,21.52
2023-03-08T21:28:22.043Z,19.85
2023-03-08T21:30:49.935Z,19.92
2023-03-08T21:33:17.073Z,21.73
2023-03-08T21:35:43.833Z,20.10
2023-03-08T21:38:10.682Z,22.27
2023-03-08T21:40:39.304Z,20.27
2023-03-08T21:43:06.091Z,20.80
2023-03-08T21:45:33.151Z,20.33
2023-03-08T21:47:59.989Z,20.13
2023-03-08T21:50:27.364Z,22.45
2023-03-08T21:52:54.679Z,20.38
2023-03-08T21:55:21.640Z,20.58
2023-03-08T21:57:48.372Z,21.08
2023-03-08T22:00:17.546Z,22.35
2023-03-08T22:02:46.026Z,23.00
2023-03-08T22:05:14.127Z,23.33
2023-03-08T22:07:41.626Z,21.65
2023-03-08T22:10:10.813Z,24.25
2023-03-08T22:12:37.724Z,23.00
2023-03-08T22:15:05.603Z,22.80
2023-03-08T22:17:32.460Z,24.13
2023-03-08T22:19:59.129Z,23.02
2023-03-08T22:22:26.150Z,22.25
2023-03-08T22:24:52.789Z,20.40
2023-03-08T22:27:19.434Z,22.63
2023-03-08T22:29:47.412Z,22.25
2023-03-08T22:32:14.199Z,22.27
2023-03-08T22:34:40.818Z,22.65
2023-03-08T22:37:07.566Z,22.00
2023-03-08T22:39:34.252Z,21.92
2023-03-08T22:42:01.156Z,23.08
2023-03-08T22:44:27.927Z,22.55
2023-03-08T22:46:54.625Z,22.30
2023-03-08T22:49:21.197Z,25.02
2023-03-08T22:51:48.043Z,22.52
2023-03-08T22:54:16.591Z,22.55
2023-03-08T22:56:43.384Z,23.35
2023-03-08T22:59:10.674Z,23.13
2023-03-08T23:01:37.497Z,22.83
2023-03-08T23:04:06.260Z,22.52
2023-03-08T23:06:33.467Z,23.05
2023-03-08T23:09:03.564Z,22.98
2023-03-08T23:11:30.412Z,29.30
2023-03-08T23:13:57.134Z,23.50
2023-03-08T23:16:24.051Z,22.92
2023-03-08T23:18:52.379Z,22.38
2023-03-08T23:21:20.818Z,22.50
2023-03-08T23:23:48.031Z,22.35
2023-03-08T23:26:21.396Z,23.20
2023-03-08T23:28:48.158Z,25.58
2023-03-08T23:31:17.290Z,23.98
2023-03-08T23:33:44.728Z,22.15
2023-03-08T23:36:13.148Z,23.95
2023-03-08T23:38:40.740Z,25.13
2023-03-08T23:41:09.481Z,22.52
2023-03-08T23:43:36.924Z,24.35
2023-03-08T23:46:08.397Z,22.05
2023-03-08T23:48:35.733Z,23.13
2023-03-08T23:51:07.077Z,22.17
2023-03-08T23:53:34.327Z,24.13
2023-03-08T23:56:01.501Z,25.67
2023-03-08T23:58:28.632Z,23.70
